Time;durP1;ratioP1;P1;durP2;ratioP2;P2;SDS_P1;SDS_P2;PMS_P1;PMS_P2;Temp;Humidity;BMP_temperature;BMP_pressure;BME280_temperature;BME280_humidity;BME280_pressure;Samples;Min_cycle;Max_cycle;Signal;HPM_P1;HPM_P2
2023/08/04 00:00:45;;;;;;;1999.90;999.90;;;14.70;99.90;;;;;;5036203;28;20497;-70
2023/08/04 00:03:10;;;;;;;1999.90;999.90;;;14.60;99.90;;;;;;5035851;28;20084;-70
2023/08/04 00:05:36;;;;;;;1999.90;999.90;;;14.60;99.90;;;;;;5035426;28;20049;-69
2023/08/04 00:08:02;;;;;;;1999.90;999.90;;;14.60;99.90;;;;;;5035954;28;20121;-70
2023/08/04 00:10:27;;;;;;;1999.90;999.90;;;14.70;99.90;;;;;;5036089;28;20105;-70
2023/08/04 00:12:53;;;;;;;1999.90;999.90;;;14.70;99.90;;;;;;5035840;28;20057;-71
2023/08/04 00:15:19;;;;;;;1999.90;999.90;;;14.70;99.90;;;;;;5035679;28;20041;-70
2023/08/04 00:17:44;;;;;;;1999.90;999.90;;;14.70;99.90;;;;;;5035813;28;20065;-69
2023/08/04 00:20:11;;;;;;;1999.90;999.90;;;14.60;99.90;;;;;;5034101;28;20037;-70
2023/08/04 00:22:37;;;;;;;1999.90;999.90;;;14.70;99.90;;;;;;5035471;28;20034;-70
2023/08/04 00:25:03;;;;;;;1999.90;999.90;;;14.70;99.90;;;;;;5035651;28;20113;-69
2023/08/04 00:27:29;;;;;;;1999.90;999.90;;;14.70;99.90;;;;;;5035384;28;20089;-70
2023/08/04 00:29:54;;;;;;;1999.90;999.90;;;14.60;99.90;;;;;;5035700;28;20041;-71
2023/08/04 00:32:20;;;;;;;1999.90;999.90;;;14.60;99.90;;;;;;5035231;28;20066;-69
2023/08/04 00:34:45;;;;;;;1999.90;999.90;;;14.50;99.90;;;;;;5035024;28;20057;-70
2023/08/04 00:37:11;;;;;;;1999.90;999.90;;;14.40;99.90;;;;;;5035659;28;20036;-69
2023/08/04 00:39:37;;;;;;;1999.90;999.90;;;14.40;99.90;;;;;;5035516;28;20472;-72
2023/08/04 00:42:02;;;;;;;1999.90;999.90;;;14.40;99.90;;;;;;5035219;28;20034;-70
2023/08/04 00:44:28;;;;;;;1999.90;999.90;;;14.30;99.90;;;;;;5035101;28;20049;-70
2023/08/04 00:46:53;;;;;;;1999.90;999.90;;;14.30;99.90;;;;;;5033968;28;20034;-70
2023/08/04 00:49:20;;;;;;;1999.90;999.90;;;14.20;99.90;;;;;;5035239;28;20034;-69
2023/08/04 00:51:46;;;;;;;1999.90;999.90;;;14.20;99.90;;;;;;5034610;28;20401;-70
2023/08/04 00:54:12;;;;;;;1999.90;999.90;;;14.10;99.90;;;;;;5034977;28;20132;-70
2023/08/04 00:56:38;;;;;;;1999.90;999.90;;;14.20;99.90;;;;;;5033314;28;20458;-69
2023/08/04 00:59:04;;;;;;;1999.90;999.90;;;14.20;99.90;;;;;;5035513;28;20449;-69
2023/08/04 01:01:29;;;;;;;1999.90;999.90;;;14.20;99.90;;;;;;5035034;28;20505;-69
2023/08/04 01:03:56;;;;;;;1999.90;999.90;;;14.30;99.90;;;;;;5033198;28;20038;-70
2023/08/04 01:06:51;;;;;;;1999.90;999.90;;;14.40;99.90;;;;;;5034614;28;20519;-70
2023/08/04 01:09:39;;;;;;;1999.90;999.90;;;14.50;99.90;;;;;;5035111;28;20033;-69
2023/08/04 01:12:17;;;;;;;1999.90;999.90;;;14.60;99.90;;;;;;5035036;28;20030;-70
2023/08/04 01:14:46;;;;;;;1999.90;999.90;;;14.70;99.90;;;;;;5034829;28;20034;-72
2023/08/04 01:17:31;;;;;;;1999.90;999.90;;;14.80;99.90;;;;;;5035050;28;20084;-70
2023/08/04 01:19:58;;;;;;;1999.90;999.90;;;14.90;99.90;;;;;;5034785;28;20084;-69
2023/08/04 01:22:25;;;;;;;1999.90;999.90;;;15.00;99.90;;;;;;5034705;28;20082;-70
2023/08/04 01:24:51;;;;;;;1999.90;999.90;;;15.00;99.90;;;;;;5032983;28;20045;-70
2023/08/04 01:27:22;;;;;;;1999.90;999.90;;;15.10;99.90;;;;;;5034706;28;20122;-70
2023/08/04 01:29:49;;;;;;;1999.90;999.90;;;15.20;99.90;;;;;;5035016;28;20040;-69
2023/08/04 01:32:15;;;;;;;1999.90;999.90;;;15.30;99.90;;;;;;5034596;28;20029;-69
2023/08/04 01:34:42;;;;;;;1999.90;999.90;;;15.40;99.90;;;;;;5034313;28;20526;-70
2023/08/04 01:37:08;;;;;;;1999.90;999.90;;;15.40;99.90;;;;;;5034126;28;20030;-70
2023/08/04 01:39:36;;;;;;;1999.90;999.90;;;15.40;99.90;;;;;;5034569;28;20041;-69
2023/08/04 01:42:02;;;;;;;1999.90;999.90;;;15.40;99.90;;;;;;5034333;28;20493;-70
2023/08/04 01:44:27;;;;;;;1999.90;999.90;;;15.50;99.90;;;;;;5034102;28;20049;-72
2023/08/04 01:46:53;;;;;;;1999.90;999.90;;;15.50;99.90;;;;;;5034146;28;20120;-70
2023/08/04 01:49:18;;;;;;;1999.90;999.90;;;15.60;99.90;;;;;;5034476;28;20499;-70
2023/08/04 01:51:44;;;;;;;1999.90;999.90;;;15.60;99.90;;;;;;5059123;22;20482;-73
2023/08/04 01:54:09;;;;;;;1999.90;999.90;;;15.60;99.90;;;;;;5032830;28;20501;-74
2023/08/04 01:56:35;;;;;;;1999.90;999.90;;;15.70;99.90;;;;;;5016577;28;20469;-74
2023/08/04 01:59:00;;;;;;;1999.90;999.90;;;15.70;99.90;;;;;;5034295;28;20504;-75
2023/08/04 02:01:26;;;;;;;1999.90;999.90;;;15.60;99.90;;;;;;5034047;28;20038;-74
2023/08/04 02:03:51;;;;;;;1999.90;999.90;;;15.60;99.90;;;;;;5033947;28;20045;-74
2023/08/04 02:06:17;;;;;;;1999.90;999.90;;;15.60;99.90;;;;;;5034068;28;20030;-74
2023/08/04 02:08:42;;;;;;;1999.90;999.90;;;15.40;99.90;;;;;;5033943;28;20033;-74
2023/08/04 02:11:08;;;;;;;1999.90;999.90;;;15.30;99.90;;;;;;5034217;28;20045;-74
2023/08/04 02:13:33;;;;;;;1999.90;999.90;;;15.30;99.90;;;;;;5016063;28;20489;-74
2023/08/04 02:15:59;;;;;;;1999.90;999.90;;;15.30;99.90;;;;;;5033932;28;20034;-74
2023/08/04 02:18:24;;;;;;;1999.90;999.90;;;15.20;99.90;;;;;;5034244;28;20421;-74
2023/08/04 02:20:50;;;;;;;1999.90;999.90;;;15.10;99.90;;;;;;5037649;28;20116;-74
2023/08/04 02:23:15;;;;;;;1999.90;999.90;;;15.00;99.90;;;;;;5037383;28;20045;-74
2023/08/04 02:25:41;;;;;;;1999.90;999.90;;;14.90;99.90;;;;;;5037365;28;20034;-74
2023/08/04 02:28:07;;;;;;;1999.90;999.90;;;14.90;99.90;;;;;;5019590;28;20030;-73
2023/08/04 02:30:33;;;;;;;1999.90;999.90;;;14.80;99.90;;;;;;5019416;28;20134;-74
2023/08/04 02:32:59;;;;;;;1999.90;999.90;;;14.80;99.90;;;;;;5019108;28;20185;-74
2023/08/04 02:35:24;;;;;;;1999.90;999.90;;;14.80;99.90;;;;;;5036984;28;20044;-74
2023/08/04 02:37:50;;;;;;;1999.90;999.90;;;14.70;99.90;;;;;;5037144;28;20045;-74
2023/08/04 02:40:15;;;;;;;1999.90;999.90;;;14.70;99.90;;;;;;5037338;28;20034;-74
2023/08/04 02:42:41;;;;;;;1999.90;999.90;;;14.60;99.90;;;;;;5037135;28;20505;-74
2023/08/04 02:45:10;;;;;;;1999.90;999.90;;;14.70;99.90;;;;;;5018927;28;20034;-75
2023/08/04 02:47:36;;;;;;;1999.90;999.90;;;14.70;99.90;;;;;;5019126;28;20036;-74
2023/08/04 02:50:04;;;;;;;1999.90;999.90;;;14.70;99.90;;;;;;5019123;28;20536;-74
2023/08/04 02:52:29;;;;;;;1999.90;999.90;;;14.80;99.90;;;;;;5036777;28;20049;-74
2023/08/04 02:54:55;;;;;;;1999.90;999.90;;;14.80;99.90;;;;;;5036805;28;20038;-74
2023/08/04 02:57:21;;;;;;;1999.90;999.90;;;14.80;99.90;;;;;;5036986;28;20061;-74
2023/08/04 02:59:46;;;;;;;1999.90;999.90;;;14.80;99.90;;;;;;5018937;28;20036;-74
2023/08/04 03:02:12;;;;;;;1999.90;999.90;;;14.90;99.90;;;;;;5036950;28;20069;-74
2023/08/04 03:04:38;;;;;;;1999.90;999.90;;;14.90;99.90;;;;;;5036559;28;20520;-74
2023/08/04 03:07:04;;;;;;;1999.90;999.90;;;14.80;99.90;;;;;;5036975;28;20030;-74
2023/08/04 03:09:30;;;;;;;1999.90;999.90;;;14.80;99.90;;;;;;5036969;28;20520;-74
2023/08/04 03:11:55;;;;;;;1999.90;999.90;;;14.80;99.90;;;;;;5036756;28;20038;-74
2023/08/04 03:14:21;;;;;;;1999.90;999.90;;;14.80;99.90;;;;;;5036604;28;20038;-74
2023/08/04 03:16:49;;;;;;;1999.90;999.90;;;14.80;99.90;;;;;;5036915;28;20032;-74
2023/08/04 03:19:16;;;;;;;1999.90;999.90;;;14.80;99.90;;;;;;5036406;28;20034;-74
2023/08/04 03:21:42;;;;;;;1999.90;999.90;;;14.70;99.90;;;;;;5036610;28;20496;-74
2023/08/04 03:24:07;;;;;;;1999.90;999.90;;;14.70;99.90;;;;;;5036203;28;20045;-74
2023/08/04 03:26:33;;;;;;;1999.90;999.90;;;14.80;99.90;;;;;;5036551;28;20088;-74
2023/08/04 03:28:58;;;;;;;1999.90;999.90;;;14.80;99.90;;;;;;5018545;28;20029;-74
2023/08/04 03:31:24;;;;;;;1999.90;999.90;;;14.80;99.90;;;;;;5036406;28;20037;-74
2023/08/04 03:33:49;;;;;;;1999.90;999.90;;;14.80;99.90;;;;;;5036338;28;20045;-74
2023/08/04 03:36:15;;;;;;;1999.90;999.90;;;14.90;99.90;;;;;;5036387;28;20068;-74
2023/08/04 03:38:41;;;;;;;1999.90;999.90;;;14.80;99.90;;;;;;5036606;28;20109;-74
2023/08/04 03:41:06;;;;;;;1999.90;999.90;;;14.80;99.90;;;;;;5018557;28;20038;-74
2023/08/04 03:43:32;;;;;;;1999.90;999.90;;;14.80;99.90;;;;;;5036190;28;20069;-73
2023/08/04 03:45:57;;;;;;;1999.90;999.90;;;14.90;99.90;;;;;;5018218;28;20093;-74
2023/08/04 03:48:23;;;;;;;1999.90;999.90;;;14.90;99.90;;;;;;5018258;28;20034;-74
2023/08/04 03:50:48;;;;;;;1999.90;999.90;;;14.90;99.90;;;;;;5018318;28;20030;-74
2023/08/04 03:53:14;;;;;;;1999.90;999.90;;;15.00;99.90;;;;;;5035509;28;20130;-74
2023/08/04 03:55:39;;;;;;;1999.90;999.90;;;15.00;99.90;;;;;;5035969;28;20034;-74
2023/08/04 03:58:05;;;;;;;1999.90;999.90;;;15.10;99.90;;;;;;5035655;28;20044;-74
2023/08/04 04:00:31;;;;;;;1999.90;999.90;;;15.20;99.90;;;;;;5035909;28;20034;-74
2023/08/04 04:02:56;;;;;;;1999.90;999.90;;;15.20;99.90;;;;;;5035867;28;20493;-74
2023/08/04 04:05:22;;;;;;;1999.90;999.90;;;15.30;99.90;;;;;;5035886;28;20042;-74
2023/08/04 04:07:47;;;;;;;1999.90;999.90;;;15.30;99.90;;;;;;5036337;28;20404;-74
2023/08/04 04:10:13;;;;;;;1999.90;999.90;;;15.40;99.90;;;;;;5017901;28;20123;-73
2023/08/04 04:12:39;;;;;;;1999.90;999.90;;;15.40;99.90;;;;;;5035505;28;20059;-74
2023/08/04 04:15:06;;;;;;;1999.90;999.90;;;15.50;99.90;;;;;;5017561;28;20493;-75
2023/08/04 04:17:31;;;;;;;1999.90;999.90;;;15.50;99.90;;;;;;5017795;28;20205;-74
2023/08/04 04:19:57;;;;;;;1999.90;999.90;;;15.60;99.90;;;;;;5018070;28;20026;-74
2023/08/04 04:22:22;;;;;;;1999.90;999.90;;;15.60;99.90;;;;;;5035697;28;20030;-74
2023/08/04 04:24:51;;;;;;;1999.90;999.90;;;15.60;99.90;;;;;;5017354;28;20382;-74
2023/08/04 04:27:16;;;;;;;1999.90;999.90;;;15.70;99.90;;;;;;5035576;28;20026;-74
2023/08/04 04:29:42;;;;;;;1999.90;999.90;;;15.70;99.90;;;;;;5035680;28;20489;-74
2023/08/04 04:32:07;;;;;;;1999.90;999.90;;;15.80;99.90;;;;;;5035314;28;20493;-74
2023/08/04 04:34:33;;;;;;;1999.90;999.90;;;15.80;99.90;;;;;;5035339;28;20084;-74
2023/08/04 04:36:59;;;;;;;1999.90;999.90;;;15.80;99.90;;;;;;5035647;28;20041;-74
2023/08/04 04:39:25;;;;;;;1999.90;999.90;;;15.90;99.90;;;;;;5035392;28;20414;-74
2023/08/04 04:41:51;;;;;;;1999.90;999.90;;;15.90;99.90;;;;;;5016556;28;20125;-74
2023/08/04 04:44:16;;;;;;;1999.90;999.90;;;16.00;99.90;;;;;;5035023;28;20048;-74
2023/08/04 04:46:42;;;;;;;1999.90;999.90;;;16.10;99.90;;;;;;5035385;28;20080;-74
2023/08/04 04:49:07;;;;;;;1999.90;999.90;;;16.10;99.90;;;;;;5034985;28;20049;-74
2023/08/04 04:51:33;;;;;;;1999.90;999.90;;;16.10;99.90;;;;;;5017176;28;20060;-73
2023/08/04 04:53:58;;;;;;;1999.90;999.90;;;16.10;99.90;;;;;;5034559;28;20034;-73
2023/08/04 04:56:24;;;;;;;1999.90;999.90;;;16.00;99.90;;;;;;5034286;28;20366;-82
2023/08/04 04:58:50;;;;;;;1999.90;999.90;;;16.00;99.90;;;;;;5034376;28;20030;-76
2023/08/04 05:01:16;;;;;;;1999.90;999.90;;;16.00;99.90;;;;;;5035013;28;20037;-74
2023/08/04 05:03:41;;;;;;;1999.90;999.90;;;16.00;99.90;;;;;;5028484;28;20050;-73
2023/08/04 05:06:07;;;;;;;1999.90;999.90;;;16.00;99.90;;;;;;5035688;28;20030;-73
2023/08/04 05:08:33;;;;;;;1999.90;999.90;;;16.00;99.90;;;;;;5035169;28;20049;-73
2023/08/04 05:10:58;;;;;;;1999.90;999.90;;;16.00;99.90;;;;;;5034956;28;20072;-73
2023/08/04 05:13:24;;;;;;;1999.90;999.90;;;16.00;99.90;;;;;;5034561;28;20425;-74
2023/08/04 05:15:50;;;;;;;1999.90;999.90;;;16.00;99.90;;;;;;5016600;28;20083;-74
2023/08/04 05:18:16;;;;;;;1999.90;999.90;;;15.90;99.90;;;;;;5034721;28;20408;-74
2023/08/04 05:20:45;;;;;;;1999.90;999.90;;;15.90;99.90;;;;;;5035131;28;20117;-74
2023/08/04 05:23:11;;;;;;;1999.90;999.90;;;15.90;99.90;;;;;;5034660;28;20919;-74
2023/08/04 05:25:36;;;;;;;1999.90;999.90;;;15.90;99.90;;;;;;5034528;28;20079;-73
2023/08/04 05:28:27;;;;;;;1999.90;999.90;;;15.90;99.90;;;;;;5034969;28;20087;-76
2023/08/04 05:30:56;;;;;;;1999.90;999.90;;;15.70;99.90;;;;;;5035025;28;20134;-73
2023/08/04 05:33:21;;;;;;;1999.90;999.90;;;15.60;99.90;;;;;;5034482;28;20026;-74
2023/08/04 05:35:47;;;;;;;1999.90;999.90;;;15.50;99.90;;;;;;5034633;28;20033;-74
2023/08/04 05:38:13;;;;;;;1999.90;999.90;;;15.40;99.90;;;;;;5035027;28;20548;-73
2023/08/04 05:40:41;;;;;;;1999.90;999.90;;;15.40;99.90;;;;;;5034771;28;20030;-75
2023/08/04 05:43:07;;;;;;;1999.90;999.90;;;15.30;99.90;;;;;;5034130;28;20487;-74
2023/08/04 05:45:39;;;;;;;1999.90;999.90;;;15.20;99.90;;;;;;5016093;28;20036;-74
2023/08/04 05:48:05;;;;;;;1999.90;999.90;;;15.10;99.90;;;;;;5034244;28;20124;-73
2023/08/04 05:50:31;;;;;;;1999.90;999.90;;;15.10;99.90;;;;;;5034443;28;20038;-73
2023/08/04 05:52:57;;;;;;;1999.90;999.90;;;15.20;99.90;;;;;;5033245;28;20042;-73
2023/08/04 05:55:23;;;;;;;1999.90;999.90;;;15.30;99.90;;;;;;5033674;28;20030;-73
2023/08/04 05:57:50;;;;;;;1999.90;999.90;;;15.40;99.90;;;;;;5034421;28;20049;-74
2023/08/04 06:00:16;;;;;;;1999.90;999.90;;;15.50;99.90;;;;;;5034180;28;20034;-74
2023/08/04 06:02:43;;;;;;;1999.90;999.90;;;15.50;99.90;;;;;;5034212;28;20034;-73
2023/08/04 06:05:09;;;;;;;1999.90;999.90;;;15.50;99.90;;;;;;5016613;28;20048;-74
2023/08/04 06:07:35;;;;;;;1999.90;999.90;;;15.50;99.90;;;;;;5019076;28;20497;-75
2023/08/04 06:10:00;;;;;;;1999.90;999.90;;;15.50;99.90;;;;;;5037497;28;20050;-74
2023/08/04 06:12:26;;;;;;;1999.90;999.90;;;15.70;99.90;;;;;;5026384;28;20068;-73
2023/08/04 06:14:52;;;;;;;1999.90;999.90;;;15.70;99.90;;;;;;5031554;28;20421;-75
2023/08/04 06:17:17;;;;;;;1999.90;999.90;;;15.90;99.90;;;;;;5034252;28;20038;-73
2023/08/04 06:19:43;;;;;;;1999.90;999.90;;;16.10;99.90;;;;;;5037253;28;20437;-74
2023/08/04 06:22:09;;;;;;;1999.90;999.90;;;16.20;99.90;;;;;;5053546;28;20506;-74
2023/08/04 06:24:35;;;;;;;1999.90;999.90;;;16.40;99.90;;;;;;5053446;28;20037;-73
2023/08/04 06:27:03;;;;;;;1999.90;999.90;;;16.60;99.90;;;;;;5035097;28;20038;-73
2023/08/04 06:29:28;;;;;;;1999.90;999.90;;;16.70;99.90;;;;;;5053359;28;20045;-73
2023/08/04 06:31:54;;;;;;;1999.90;999.90;;;16.60;99.90;;;;;;5050885;28;20546;-72
2023/08/04 06:34:19;;;;;;;1999.90;999.90;;;16.80;99.90;;;;;;5040897;28;20030;-72
2023/08/04 06:36:46;;;;;;;1999.90;999.90;;;16.80;99.90;;;;;;5052740;28;20478;-72
2023/08/04 06:39:11;;;;;;;1999.90;999.90;;;16.80;99.90;;;;;;5053654;28;20038;-72
2023/08/04 06:41:37;;;;;;;1999.90;999.90;;;16.70;99.90;;;;;;5035168;28;20021;-72
2023/08/04 06:44:03;;;;;;;1999.90;999.90;;;16.90;99.90;;;;;;5053434;28;20102;-72
2023/08/04 06:46:28;;;;;;;1999.90;999.90;;;17.00;99.90;;;;;;5053677;28;20121;-72
2023/08/04 06:48:54;;;;;;;1999.90;999.90;;;17.10;99.90;;;;;;5052472;28;20109;-73
2023/08/04 06:51:19;;;;;;;1999.90;999.90;;;16.90;99.90;;;;;;5053327;28;20026;-72
2023/08/04 06:53:45;;;;;;;1999.90;999.90;;;17.00;99.90;;;;;;5053548;28;20075;-72
2023/08/04 06:56:10;;;;;;;1999.90;999.90;;;17.20;99.90;;;;;;5053314;28;20061;-72
2023/08/04 06:58:36;;;;;;;1999.90;999.90;;;17.30;99.90;;;;;;5053419;28;20076;-72
2023/08/04 07:01:01;;;;;;;1999.90;999.90;;;17.30;99.90;;;;;;5053504;28;20065;-72
2023/08/04 07:03:27;;;;;;;1999.90;999.90;;;17.30;99.90;;;;;;5053550;28;20096;-72
2023/08/04 07:05:53;;;;;;;1999.90;999.90;;;17.10;99.90;;;;;;5037213;28;20033;-72
2023/08/04 07:08:18;;;;;;;1999.90;999.90;;;17.20;99.90;;;;;;5038609;28;20038;-72
2023/08/04 07:10:45;;;;;;;1999.90;999.90;;;17.60;99.90;;;;;;5056597;28;20057;-72
2023/08/04 07:13:10;;;;;;;1999.90;999.90;;;17.80;99.90;;;;;;5038716;28;20033;-72
2023/08/04 07:15:36;;;;;;;1999.90;999.90;;;17.90;99.90;;;;;;5056545;28;20076;-72
2023/08/04 07:18:02;;;;;;;1999.90;999.90;;;17.90;99.90;;;;;;5056652;28;20045;-72
2023/08/04 07:20:28;;;;;;;1999.90;999.90;;;18.40;99.90;;;;;;5056622;28;20034;-72
2023/08/04 07:22:54;;;;;;;1999.90;999.90;;;18.60;99.90;;;;;;5056108;28;20029;-72
2023/08/04 07:25:20;;;;;;;1999.90;999.90;;;18.80;99.90;;;;;;5038065;28;20033;-72
2023/08/04 07:27:46;;;;;;;1999.90;999.90;;;18.90;99.90;;;;;;5056138;28;20034;-72
2023/08/04 07:30:13;;;;;;;1999.90;999.90;;;18.80;99.90;;;;;;5056489;28;20092;-73
2023/08/04 07:32:39;;;;;;;1999.90;999.90;;;18.80;99.90;;;;;;5037977;28;20033;-72
2023/08/04 07:35:04;;;;;;;1999.90;999.90;;;18.90;99.90;;;;;;5056065;28;20037;-72
2023/08/04 07:37:30;;;;;;;1999.90;999.90;;;18.90;99.90;;;;;;5055890;28;20030;-72
2023/08/04 07:39:55;;;;;;;1999.90;999.90;;;19.20;99.90;;;;;;5038233;28;20029;-73
2023/08/04 07:42:21;;;;;;;1999.90;999.90;;;19.50;99.90;;;;;;5055701;28;20469;-73
2023/08/04 07:44:46;;;;;;;1999.90;999.90;;;19.80;99.90;;;;;;5055998;28;20052;-73
2023/08/04 07:47:12;;;;;;;1999.90;999.90;;;19.90;99.90;;;;;;5056821;28;20048;-73
2023/08/04 07:49:37;;;;;;;1999.90;999.90;;;20.10;99.90;;;;;;5038074;28;20044;-73
2023/08/04 07:54:35;;;;;;;1999.90;999.90;;;19.80;99.90;;;;;;5032453;28;20065;-72
2023/08/04 07:57:03;;;;;;;1999.90;999.90;;;19.60;99.90;;;;;;5018331;28;20077;-73
2023/08/04 07:59:29;;;;;;;1999.90;999.90;;;19.30;99.90;;;;;;5036228;28;20034;-76
2023/08/04 08:01:54;;;;;;;1999.90;999.90;;;19.20;99.90;;;;;;5036342;28;20034;-72
2023/08/04 08:04:20;;;;;;;1999.90;999.90;;;19.20;99.90;;;;;;5035478;28;20144;-71
2023/08/04 08:06:45;;;;;;;1999.90;999.90;;;19.30;99.90;;;;;;5035532;28;20038;-75
2023/08/04 08:09:12;;;;;;;1999.90;999.90;;;19.40;99.90;;;;;;5032802;28;20085;-75
2023/08/04 08:11:38;;;;;;;1999.90;999.90;;;19.50;99.90;;;;;;5014808;28;20109;-76
2023/08/04 08:14:03;;;;;;;1999.90;999.90;;;19.70;99.90;;;;;;5015406;28;20035;-75
2023/08/04 08:16:29;;;;;;;1999.90;999.90;;;19.90;99.90;;;;;;5018531;28;20046;-74
2023/08/04 08:18:54;;;;;;;1999.90;999.90;;;20.00;99.90;;;;;;5021123;28;20041;-76
2023/08/04 08:21:20;;;;;;;1999.90;999.90;;;19.90;99.90;;;;;;5025748;28;20030;-72
2023/08/04 08:23:45;;;;;;;1999.90;999.90;;;20.00;99.90;;;;;;5034991;28;20049;-72
2023/08/04 08:26:11;;;;;;;1999.90;999.90;;;20.00;99.90;;;;;;5035288;28;20038;-74
2023/08/04 08:28:36;;;;;;;1999.90;999.90;;;19.70;99.90;;;;;;5035634;28;20423;-72
2023/08/04 08:31:02;;;;;;;1999.90;999.90;;;19.60;99.90;;;;;;5035148;28;20029;-72
2023/08/04 08:33:27;;;;;;;1999.90;999.90;;;19.50;99.90;;;;;;5033961;28;20530;-73
2023/08/04 08:35:54;;;;;;;1999.90;999.90;;;19.60;99.90;;;;;;5035020;28;20061;-74
2023/08/04 08:38:20;;;;;;;1999.90;999.90;;;19.60;99.90;;;;;;5035270;28;20038;-72
2023/08/04 08:40:48;;;;;;;1999.90;999.90;;;19.50;99.90;;;;;;5035410;28;20481;-73
2023/08/04 08:43:14;;;;;;;1999.90;999.90;;;19.80;99.90;;;;;;5024676;28;20046;-72
2023/08/04 08:45:40;;;;;;;1999.90;999.90;;;20.20;99.90;;;;;;5015311;28;20038;-72
2023/08/04 08:48:06;;;;;;;1999.90;999.90;;;20.50;99.90;;;;;;5015216;28;20402;-72
2023/08/04 08:50:32;;;;;;;1999.90;999.90;;;20.50;99.90;;;;;;5025003;28;20030;-73
2023/08/04 08:53:11;;;;;;;1999.90;999.90;;;20.50;99.90;;;;;;5034413;28;20503;-72
2023/08/04 08:55:38;;;;;;;1999.90;999.90;;;20.70;99.90;;;;;;5034989;28;20425;-75
2023/08/04 08:58:04;;;;;;;1999.90;999.90;;;21.40;99.90;;;;;;5035031;28;20034;-73
2023/08/04 09:00:30;;;;;;;1999.90;999.90;;;22.00;99.90;;;;;;5035062;28;20574;-73
2023/08/04 09:02:57;;;;;;;1999.90;999.90;;;22.20;99.90;;;;;;5034538;28;20034;-72
2023/08/04 09:05:22;;;;;;;1999.90;999.90;;;22.30;99.90;;;;;;5034757;28;20460;-73
2023/08/04 09:07:48;;;;;;;1999.90;999.90;;;22.30;99.90;;;;;;5034842;28;20040;-72
2023/08/04 09:10:14;;;;;;;1999.90;999.90;;;22.80;99.90;;;;;;5033483;28;20084;-72
2023/08/04 09:12:41;;;;;;;1999.90;999.90;;;23.20;99.90;;;;;;5034964;28;20575;-73
2023/08/04 09:15:07;;;;;;;1999.90;999.90;;;23.60;99.90;;;;;;5032925;28;20038;-73
2023/08/04 09:17:35;;;;;;;1999.90;999.90;;;23.20;99.90;;;;;;5034830;28;20033;-73
2023/08/04 09:20:05;;;;;;;1999.90;999.90;;;22.50;99.90;;;;;;5034827;28;20117;-72
2023/08/04 09:22:34;;;;;;;1999.90;999.90;;;21.80;99.90;;;;;;5034279;28;20038;-81
2023/08/04 09:25:02;;;;;;;1999.90;999.90;;;21.40;99.90;;;;;;5033789;28;20045;-78
2023/08/04 09:27:33;;;;;;;1999.90;999.90;;;21.30;99.90;;;;;;5034888;28;20034;-74
2023/08/04 09:30:01;;;;;;;1999.90;999.90;;;21.40;99.90;;;;;;5035259;28;20030;-83
2023/08/04 09:32:28;;;;;;;1999.90;999.90;;;21.50;99.90;;;;;;5035091;28;20185;-80
2023/08/04 09:35:20;;;;;;;1999.90;999.90;;;21.90;99.90;;;;;;5033727;28;20034;-76
2023/08/04 09:37:46;;;;;;;1999.90;999.90;;;22.10;99.90;;;;;;5009621;28;20039;-74
2023/08/04 09:40:17;;;;;;;1999.90;999.90;;;22.50;99.90;;;;;;5014645;28;20038;-74
2023/08/04 09:42:42;;;;;;;1999.90;999.90;;;22.60;99.90;;;;;;5014721;28;20484;-74
2023/08/04 09:45:13;;;;;;;1999.90;999.90;;;22.90;99.90;;;;;;5014428;28;20038;-73
2023/08/04 09:47:38;;;;;;;1999.90;999.90;;;22.70;99.90;;;;;;5013213;28;20129;-73
2023/08/04 09:50:09;;;;;;;1999.90;999.90;;;22.50;99.90;;;;;;5018821;28;20113;-73
2023/08/04 09:52:35;;;;;;;1999.90;999.90;;;22.50;99.90;;;;;;5029274;28;20041;-73
2023/08/04 09:55:01;;;;;;;1999.90;999.90;;;22.30;99.90;;;;;;5030560;28;20049;-71
2023/08/04 09:57:27;;;;;;;1999.90;999.90;;;21.90;99.90;;;;;;5024493;28;20054;-72
2023/08/04 09:59:52;;;;;;;1999.90;999.90;;;21.40;99.90;;;;;;5019732;28;20046;-72
2023/08/04 10:02:19;;;;;;;1999.90;999.90;;;21.20;99.90;;;;;;5031201;28;20049;-72
2023/08/04 10:04:51;;;;;;;1999.90;999.90;;;21.50;99.90;;;;;;5031986;28;20049;-72
2023/08/04 10:07:20;;;;;;;1999.90;999.90;;;21.70;99.90;;;;;;5017133;28;20030;-72
2023/08/04 10:09:47;;;;;;;1999.90;999.90;;;21.90;99.90;;;;;;5015174;28;20030;-72
2023/08/04 10:12:14;;;;;;;1999.90;999.90;;;22.70;99.90;;;;;;5025170;28;20069;-76
2023/08/04 10:14:41;;;;;;;1999.90;999.90;;;22.80;99.90;;;;;;5019602;28;20557;-73
2023/08/04 10:17:07;;;;;;;1999.90;999.90;;;23.00;99.90;;;;;;5023057;28;20200;-75
2023/08/04 10:19:33;;;;;;;1999.90;999.90;;;23.40;99.90;;;;;;5025467;28;20525;-72
2023/08/04 10:22:11;;;;;;;1999.90;999.90;;;23.30;99.90;;;;;;5021590;28;20485;-73
2023/08/04 10:24:40;;;;;;;1999.90;999.90;;;23.30;99.90;;;;;;5022043;28;20045;-73
2023/08/04 10:27:20;;;;;;;1999.90;999.90;;;23.10;99.90;;;;;;5022609;28;20116;-73
2023/08/04 10:30:08;;;;;;;1999.90;999.90;;;22.50;99.90;;;;;;5029652;28;20089;-71
2023/08/04 10:32:35;;;;;;;1999.90;999.90;;;22.60;99.90;;;;;;5033411;28;20060;-73
2023/08/04 10:35:03;;;;;;;1999.90;999.90;;;22.30;99.90;;;;;;5030499;28;20531;-74
2023/08/04 10:37:28;;;;;;;1999.90;999.90;;;22.00;99.90;;;;;;5028494;28;20061;-74
2023/08/04 10:39:58;;;;;;;1999.90;999.90;;;22.10;99.90;;;;;;5034742;28;20064;-76
2023/08/04 10:42:28;;;;;;;1999.90;999.90;;;22.00;99.90;;;;;;5022311;28;20031;-71
2023/08/04 10:45:03;;;;;;;1999.90;999.90;;;22.00;99.90;;;;;;5030657;28;20027;-81
2023/08/04 10:47:39;;;;;;;1999.90;999.90;;;21.90;99.90;;;;;;5034704;28;20048;-77
2023/08/04 10:50:05;;;;;;;1999.90;999.90;;;21.50;99.90;;;;;;5035908;28;20520;-81
2023/08/04 10:52:32;;;;;;;1999.90;999.90;;;21.40;99.90;;;;;;5035808;28;20038;-74
2023/08/04 10:54:59;;;;;;;1999.90;999.90;;;21.30;99.90;;;;;;5032822;28;20120;-74
2023/08/04 10:57:28;;;;;;;1999.90;999.90;;;21.40;99.90;;;;;;5028054;28;20034;-71
2023/08/04 10:59:54;;;;;;;1999.90;999.90;;;21.60;99.90;;;;;;5017991;28;20034;-71
2023/08/04 11:02:20;;;;;;;1999.90;999.90;;;21.60;99.90;;;;;;5036806;28;20091;-72
2023/08/04 11:04:47;;;;;;;1999.90;999.90;;;21.40;99.90;;;;;;5029727;28;20122;-75
2023/08/04 11:07:14;;;;;;;1999.90;999.90;;;21.30;99.90;;;;;;5023602;28;20022;-72
2023/08/04 11:09:41;;;;;;;1999.90;999.90;;;21.10;99.90;;;;;;5034701;28;20072;-72
2023/08/04 11:12:07;;;;;;;1999.90;999.90;;;21.10;99.90;;;;;;5025304;28;20026;-72
2023/08/04 11:14:35;;;;;;;1999.90;999.90;;;21.10;99.90;;;;;;5021718;28;20050;-72
2023/08/04 11:17:01;;;;;;;1999.90;999.90;;;21.00;99.90;;;;;;5026767;28;20405;-71
2023/08/04 11:19:28;;;;;;;1999.90;999.90;;;21.00;99.90;;;;;;5035348;28;20124;-72
2023/08/04 11:21:54;;;;;;;1999.90;999.90;;;21.00;99.90;;;;;;5027631;28;20034;-74
2023/08/04 11:24:24;;;;;;;1999.90;999.90;;;21.10;99.90;;;;;;5025865;28;20486;-75
2023/08/04 11:26:51;;;;;;;1999.90;999.90;;;21.20;99.90;;;;;;5025993;28;20579;-75
2023/08/04 11:29:18;;;;;;;1999.90;999.90;;;21.90;99.90;;;;;;5024101;28;20486;-75
2023/08/04 11:31:46;;;;;;;1999.90;999.90;;;22.70;99.90;;;;;;5026126;28;20478;-76
2023/08/04 11:34:16;;;;;;;1999.90;999.90;;;23.30;99.90;;;;;;5025273;28;20476;-75
2023/08/04 11:36:44;;;;;;;1999.90;999.90;;;23.10;99.90;;;;;;5025515;28;20034;-74
2023/08/04 11:39:10;;;;;;;1999.90;999.90;;;23.10;99.90;;;;;;5026389;28;20042;-76
2023/08/04 11:41:36;;;;;;;1999.90;999.90;;;22.90;99.90;;;;;;5026833;28;20034;-79
2023/08/04 11:44:02;;;;;;;1999.90;999.90;;;22.50;99.90;;;;;;5022711;28;20058;-76
2023/08/04 11:46:28;;;;;;;1999.90;999.90;;;22.20;99.90;;;;;;5027672;28;20100;-73
2023/08/04 11:48:54;;;;;;;1999.90;999.90;;;21.90;99.90;;;;;;5025503;28;20088;-73
2023/08/04 11:51:21;;;;;;;1999.90;999.90;;;21.70;99.90;;;;;;5025674;28;20054;-73
2023/08/04 11:53:47;;;;;;;1999.90;999.90;;;21.10;99.90;;;;;;5024260;28;20092;-72
2023/08/04 11:56:12;;;;;;;1999.90;999.90;;;20.90;99.90;;;;;;5024616;28;20434;-72
2023/08/04 11:58:40;;;;;;;1999.90;999.90;;;20.70;99.90;;;;;;5023560;28;20445;-72